^^
Datos históricos de la estación: Murcia-Puente Tocinos
Diario Informe para Febrero 12, 2019 Unidades:  Inglés    Métrico   Ambas
Diario Semanal Mensual Anual Configurable
  Máximo: Mínimo: Media:
Temperatura: 61.5 °F 46.9 °F 54.3 °F
Punto de rocio: 48 °F 41.9 °F 45.1 °F
Humedad: 87% 51% 72%
Velocidad viento: 8mph 0mph 2.9mph
Racha viento: 13mph - -
Viento- - East
Presión: 30.5 in 30.4 in -
Precipitación: 0 in    
Historical Graphs
 
 
Tabla de datos para Febrero 12, 2019
Hora Temperatura Punto de rocio Presión Viento Velocidad viento Racha viento Humedad Intensidad lluvia(por hora) Nubes
00:00 55 °F 48 °F 30.4 in NE 5 mph 8 mph 77% 0 in CLR
00:05 55 °F 48 °F 30.4 in NNE 5 mph 7 mph 77% 0 in CLR
00:10 54.9 °F 47.8 °F 30.4 in NNE 4 mph 2.9 mph 77% 0 in CLR
00:15 54.9 °F 47.8 °F 30.4 in NNE 5 mph 4 mph 77% 0 in CLR
00:20 54.9 °F 47.8 °F 30.4 in NNE 2 mph 5 mph 77% 0 in CLR
00:25 54.9 °F 47.8 °F 30.4 in NNE 1.8 mph 4.6 mph 77% 0 in CLR
00:30 54.9 °F 47.8 °F 30.4 in NNE 2 mph 5 mph 77% 0 in CLR
00:35 54.9 °F 47.8 °F 30.4 in North 2 mph 5 mph 77% 0 in CLR
00:40 54.7 °F 47.7 °F 30.4 in NNW 2 mph 4 mph 77% 0 in CLR
00:45 54.7 °F 47.7 °F 30.4 in North 2 mph 5 mph 77% 0 in CLR
00:50 54.7 °F 47.3 °F 30.4 in NNE 2.4 mph 2.3 mph 76% 0 in CLR
00:55 54.7 °F 47.3 °F 30.4 in NNE 2.4 mph 2.3 mph 76% 0 in CLR
01:00 54.5 °F 47.1 °F 30.4 in NNE 2 mph 3 mph 76% 0 in CLR
01:05 54.5 °F 47.1 °F 30.4 in NNE 2 mph 5 mph 76% 0 in CLR
01:10 54.5 °F 46.8 °F 30.4 in NE 2 mph 5 mph 75% 0 in CLR
01:15 54.5 °F 47.1 °F 30.4 in NE 2 mph 3 mph 76% 0 in CLR
01:20 54.5 °F 47.1 °F 30.4 in NE 1 mph 3 mph 76% 0 in CLR
01:25 54.5 °F 47.1 °F 30.4 in NE 1 mph 3 mph 76% 0 in CLR
01:30 54.3 °F 46.9 °F 30.4 in NE 1 mph 4 mph 76% 0 in CLR
01:35 54.3 °F 46.9 °F 30.4 in NNE 1 mph 3 mph 76% 0 in CLR
01:40 54.3 °F 46.9 °F 30.4 in NNE 2 mph   76% 0 in CLR
01:45 54.1 °F 46.8 °F 30.4 in NNE 2 mph 3 mph 76% 0 in CLR
01:50 54.1 °F 46.8 °F 30.4 in NNE 1 mph 3 mph 76% 0 in CLR
01:55 54.1 °F 46.8 °F 30.4 in NNE 1.4 mph 4.6 mph 76% 0 in CLR
02:00 54.1 °F 46.4 °F 30.4 in NNE 2 mph 5 mph 75% 0 in CLR
02:05 54.3 °F 46.6 °F 30.4 in NE 2 mph 6 mph 75% 0 in CLR
02:10 54.3 °F 46.6 °F 30.4 in NE 3.6 mph 3.5 mph 75% 0 in CLR
02:15 54.3 °F 46.6 °F 30.4 in NE 3 mph 4 mph 75% 0 in CLR
02:20 54.3 °F 46.2 °F 30.4 in NE 2.4 mph 3.5 mph 74% 0 in CLR
02:25 54.3 °F 46.2 °F 30.4 in NE 2.4 mph 3.1 mph 74% 0 in CLR
02:30 54.3 °F 46.2 °F 30.4 in NE 2 mph 5 mph 74% 0 in CLR
02:35 54.3 °F 46.2 °F 30.4 in NE 2 mph 5 mph 74% 0 in CLR
02:40 54.3 °F 46.2 °F 30.4 in NE 2.4 mph 3.5 mph 74% 0 in CLR
02:45 54.1 °F 46 °F 30.4 in NE 2.4 mph 2.9 mph 74% 0 in CLR
02:50 54.1 °F 46 °F 30.4 in NE 2 mph 3.5 mph 74% 0 in CLR
02:55 54.1 °F 46 °F 30.4 in NE 2 mph 5 mph 74% 0 in CLR
03:00 54.1 °F 46 °F 30.4 in NE 2 mph 4 mph 74% 0 in CLR
03:05 54.1 °F 46 °F 30.4 in NE 2.4 mph   74% 0 in CLR
03:10 54 °F 46.2 °F 30.4 in Calm     75% 0 in CLR
03:15 54 °F 46.2 °F 30.4 in Calm   2 mph 75% 0 in CLR
03:20 53.8 °F 46 °F 30.4 in Calm   4 mph 75% 0 in CLR
03:25 53.8 °F 46 °F 30.4 in Calm     75% 0 in CLR
03:30 53.6 °F 45.9 °F 30.4 in NE 1 mph 3 mph 75% 0 in CLR
03:35 53.4 °F 46 °F 30.4 in NE 1 mph 3 mph 76% 0 in CLR
03:40 53.4 °F 46 °F 30.4 in NE 1 mph 3 mph 76% 0 in CLR
03:45 53.2 °F 45.9 °F 30.4 in NE 1.4 mph   76% 0 in CLR
03:50 53.2 °F 45.9 °F 30.4 in Calm   2 mph 76% 0 in CLR
03:55 53.2 °F 46.2 °F 30.4 in Calm     77% 0 in CLR
04:00 53.1 °F 46 °F 30.4 in Calm   3 mph 77% 0 in CLR
04:05 53.1 °F 46 °F 30.4 in Calm   4 mph 77% 0 in CLR
04:10 53.1 °F 46 °F 30.4 in NW 1.8 mph   77% 0 in CLR
04:15 53.1 °F 46 °F 30.4 in NW 1.8 mph 3.5 mph 77% 0 in CLR
04:20 52.9 °F 45.9 °F 30.4 in NW 1.4 mph 4.6 mph 77% 0 in CLR
04:25 52.9 °F 46.2 °F 30.4 in NW 1 mph 5 mph 78% 0 in CLR
04:30 52.5 °F 45.9 °F 30.4 in NW 1.4 mph   78% 0 in CLR
04:35 52.5 °F 45.9 °F 30.4 in NW 1.4 mph   78% 0 in CLR
04:40 52.3 °F 45.7 °F 30.4 in Calm     78% 0 in CLR
04:45 52.3 °F 46 °F 30.4 in Calm   4 mph 79% 0 in CLR
04:50 52.2 °F 45.9 °F 30.4 in Calm     79% 0 in CLR
04:55 52.2 °F 45.9 °F 30.4 in Calm     79% 0 in CLR
05:00 52.2 °F 45.7 °F 30.4 in Calm     79% 0 in CLR
05:05 52 °F 45.7 °F 30.4 in Calm     79% 0 in CLR
05:10 51.8 °F 45.5 °F 30.4 in Calm     79% 0 in CLR
05:15 51.6 °F 45.3 °F 30.4 in Calm     79% 0 in CLR
05:20 51.6 °F 45.7 °F 30.4 in Calm   1.2 mph 80% 0 in CLR
05:25 51.4 °F 45.5 °F 30.4 in Calm   2 mph 80% 0 in CLR
05:30 51.4 °F 45.9 °F 30.4 in Calm   2.3 mph 81% 0 in CLR
05:35 51.4 °F 45.9 °F 30.4 in Calm   2 mph 81% 0 in CLR
05:40 51.4 °F 45.9 °F 30.4 in Calm     81% 0 in CLR
05:45 51.3 °F 46 °F 30.4 in Calm   2.3 mph 82% 0 in CLR
05:50 51.1 °F 45.5 °F 30.4 in WSW 1.4 mph   81% 0 in CLR
05:55 50.7 °F 45.1 °F 30.4 in WSW 1.4 mph 2.3 mph 81% 0 in CLR
06:00 50.7 °F 45.1 °F 30.4 in Calm   2 mph 81% 0 in CLR
06:05 50.5 °F 45 °F 30.4 in Calm     81% 0 in CLR
06:10 50.4 °F 44.8 °F 30.4 in Calm   3 mph 81% 0 in CLR
06:15 50.2 °F 44.6 °F 30.4 in Calm     81% 0 in CLR
06:20 50 °F 44.4 °F 30.4 in Calm     81% 0 in CLR
06:25 49.8 °F 44.2 °F 30.4 in Calm     81% 0 in CLR
06:30 49.6 °F 44.1 °F 30.4 in Calm     81% 0 in CLR
06:35 49.6 °F 44.4 °F 30.4 in Calm     82% 0 in CLR
06:40 49.5 °F 44.2 °F 30.4 in Calm   2 mph 82% 0 in CLR
06:45 49.5 °F 44.4 °F 30.4 in Calm     83% 0 in CLR
06:50 49.3 °F 44.2 °F 30.4 in Calm     83% 0 in CLR
06:55 48.9 °F 44.1 °F 30.4 in Calm     83% 0 in CLR
07:00 48.9 °F 44.2 °F 30.4 in Calm   2 mph 84% 0 in CLR
07:05 48.7 °F 44.1 °F 30.4 in Calm   2 mph 84% 0 in CLR
07:10 48.6 °F 43.9 °F 30.4 in Calm   3.5 mph 84% 0 in CLR
07:15 48.4 °F 44.1 °F 30.4 in Calm   4 mph 85% 0 in CLR
07:20 48 °F 43.7 °F 30.4 in East 2 mph 3.5 mph 85% 0 in CLR
07:25 48 °F 44.1 °F 30.4 in East 2 mph 2.3 mph 86% 0 in CLR
07:30 47.8 °F 43.9 °F 30.4 in East 1.8 mph 2.9 mph 86% 0 in CLR
07:35 47.8 °F 43.9 °F 30.4 in East 1.8 mph 2.4 mph 86% 0 in CLR
07:40 47.8 °F 43.9 °F 30.4 in East 1.8 mph   86% 0 in CLR
07:45 47.7 °F 43.3 °F 30.4 in ENE 1.8 mph 2.3 mph 85% 0 in CLR
07:50 47.5 °F 43.2 °F 30.4 in ENE 1.4 mph 1.2 mph 85% 0 in CLR
07:55 47.3 °F 43 °F 30.4 in ENE 1 mph 1 mph 85% 0 in CLR
08:00 47.1 °F 42.8 °F 30.4 in Calm     85% 0 in CLR
08:05 47.1 °F 42.8 °F 30.4 in Calm     85% 0 in CLR
08:10 46.9 °F 42.6 °F 30.4 in Calm   3 mph 85% 0 in CLR
08:15 46.9 °F 43 °F 30.4 in Calm     86% 0 in CLR
08:20 46.9 °F 43 °F 30.4 in Calm     86% 0 in CLR
08:25 46.9 °F 43.3 °F 30.4 in Calm   3 mph 87% 0 in CLR
08:30 47.1 °F 43.3 °F 30.4 in ENE 1.4 mph 2.3 mph 87% 0 in CLR
08:35 47.5 °F 43.9 °F 30.4 in ENE 1.4 mph   87% 0 in CLR
08:40 47.7 °F 44.1 °F 30.4 in Calm     87% 0 in CLR
08:45 48 °F 44.4 °F 30.4 in Calm     87% 0 in CLR
08:50 48.6 °F 44.2 °F 30.4 in Calm   3.5 mph 85% 0 in CLR
08:55 48.6 °F 43.9 °F 30.4 in Calm   3.6 mph 84% 0 in CLR
09:00 48.6 °F 43.5 °F 30.4 in SSE 2 mph 5 mph 83% 0 in CLR
09:05 48.7 °F 43.9 °F 30.4 in South 2.4 mph 4.6 mph 83% 0 in CLR
09:10 48.9 °F 43.7 °F 30.4 in South 3 mph 5 mph 82% 0 in CLR
09:15 49.3 °F 43.9 °F 30.4 in South 3 mph 6 mph 82% 0 in CLR
09:20 49.6 °F 44.4 °F 30.4 in South 3.6 mph 4.6 mph 82% 0 in CLR
09:25 49.8 °F 44.4 °F 30.4 in SSE 3 mph 6 mph 82% 0 in CLR
09:30 50.4 °F 44.8 °F 30.4 in SSE 3.6 mph 5.8 mph 81% 0 in CLR
09:35 50.5 °F 45 °F 30.4 in SSW 3 mph 7 mph 81% 0 in CLR
09:40 50.7 °F 44.8 °F 30.4 in SSW 4.3 mph 7.4 mph 80% 0 in CLR
09:45 50.7 °F 44.8 °F 30.4 in SSW 5 mph 7 mph 80% 0 in CLR
09:50 50.7 °F 44.8 °F 30.5 in SSW 5.4 mph 7.4 mph 80% 0 in CLR
09:55 50.7 °F 45 °F 30.5 in SSW 6 mph 7 mph 80% 0 in CLR
10:00 51.1 °F 45.1 °F 30.5 in SSW 5 mph 7 mph 80% 0 in CLR
10:05 51.3 °F 45.3 °F 30.5 in SSW 5 mph 7 mph 80% 0 in CLR
10:10 51.6 °F 45.3 °F 30.5 in SSW 5 mph 8 mph 79% 0 in CLR
10:15 52 °F 45.7 °F 30.5 in SSW 4.3 mph 6.9 mph 79% 0 in CLR
10:20 52.3 °F 45.7 °F 30.5 in SSW 5 mph 7 mph 78% 0 in CLR
10:25 53.1 °F 45.7 °F 30.5 in SSW 4.7 mph 4.6 mph 76% 0 in CLR
10:30 53.2 °F 45.9 °F 30.5 in South 3 mph 6 mph 76% 0 in CLR
10:35 53.4 °F 45.7 °F 30.5 in SSW 3 mph 5 mph 75% 0 in CLR
10:40 54 °F 45.9 °F 30.5 in SSW 2 mph 6 mph 74% 0 in CLR
10:45 54.1 °F 46 °F 30.5 in ESE 2.4 mph 4.6 mph 74% 0 in CLR
10:50 54.9 °F 45.7 °F 30.5 in SE 3 mph 5 mph 71% 0 in CLR
10:55 55.2 °F 46 °F 30.5 in ESE 3 mph 5 mph 71% 0 in CLR
11:00 55.9 °F 45.9 °F 30.5 in SE 1 mph 3 mph 69% 0 in CLR
11:05 56.7 °F 45.3 °F 30.5 in SE 1.4 mph 3.5 mph 66% 0 in CLR
11:10 57 °F 45.3 °F 30.5 in SE 2 mph 2.3 mph 65% 0 in CLR
11:15 57.6 °F 45.9 °F 30.5 in SE 2 mph 5 mph 65% 0 in CLR
11:20 57.7 °F 44.8 °F 30.5 in ESE 2 mph 8 mph 62% 0 in CLR
11:25 57.4 °F 45 °F 30.5 in East 2 mph 2.9 mph 63% 0 in CLR
11:30 57.6 °F 44.6 °F 30.5 in ENE 3 mph 7 mph 62% 0 in CLR
11:35 57.6 °F 45.1 °F 30.5 in ENE 3.1 mph 2.3 mph 63% 0 in CLR
11:40 57.6 °F 45.1 °F 30.5 in NE 3.6 mph 8.5 mph 63% 0 in CLR
11:45 57.4 °F 45 °F 30.5 in ENE 3.6 mph 6.2 mph 63% 0 in CLR
11:50 57.7 °F 45.1 °F 30.5 in ENE 5.2 mph 11.5 mph 63% 0 in CLR
11:55 57.6 °F 45.1 °F 30.5 in NE 5.2 mph 10.4 mph 63% 0 in CLR
12:00 57.4 °F 45 °F 30.5 in NNE 6 mph 12 mph 63% 0 in CLR
12:05 57.6 °F 45.1 °F 30.5 in ESE 5.9 mph 8.1 mph 63% 0 in CLR
12:10 57.7 °F 44.8 °F 30.5 in NE 6 mph 13 mph 62% 0 in CLR
12:15 57.6 °F 44.2 °F 30.5 in NE 5.4 mph 10.4 mph 61% 0 in CLR
12:20 57.6 °F 44.6 °F 30.5 in NE 7 mph 10 mph 62% 0 in CLR
12:25 57.9 °F 44.4 °F 30.5 in East 7.4 mph 8.1 mph 61% 0 in CLR
12:30 58.5 °F 45 °F 30.5 in East 6 mph 13 mph 61% 0 in CLR
12:35 58.6 °F 44.2 °F 30.5 in ESE 5.4 mph 5.8 mph 59% 0 in CLR
12:40 59 °F 44.8 °F 30.5 in NE 5.9 mph 11.5 mph 59% 0 in CLR
12:45 58.8 °F 44.4 °F 30.5 in NNE 5.9 mph 8.1 mph 59% 0 in CLR
12:50 59.2 °F 43.5 °F 30.5 in NE 5.4 mph 11.5 mph 56% 0 in CLR
12:55 59.2 °F 43.5 °F 30.5 in North 5.4 mph 10.4 mph 56% 0 in CLR
13:00 59.4 °F 42.6 °F 30.5 in NE 7 mph 13 mph 54% 0 in CLR
13:05 59.5 °F 43.3 °F 30.5 in NE 7 mph 13 mph 55% 0 in CLR
13:10 59.4 °F 43.7 °F 30.5 in SE 5.9 mph 3.5 mph 56% 0 in CLR
13:15 59.7 °F 43 °F 30.5 in ESE 5.9 mph 8.1 mph 54% 0 in CLR
13:20 59.9 °F 43.2 °F 30.4 in ENE 4.3 mph 4.6 mph 54% 0 in CLR
13:25 59.7 °F 43 °F 30.4 in ESE 4.3 mph 8.1 mph 54% 0 in CLR
13:30 59.7 °F 43 °F 30.4 in NNE 4.3 mph 3.5 mph 54% 0 in CLR
13:35 59.7 °F 42.4 °F 30.4 in NE 5 mph 9 mph 53% 0 in CLR
13:40 59.5 °F 43 °F 30.4 in NNE 4 mph 5.8 mph 54% 0 in CLR
13:45 59.5 °F 43 °F 30.4 in NNE 4 mph 10.4 mph 54% 0 in CLR
13:50 59.4 °F 42.3 °F 30.4 in NNE 4.7 mph 8.1 mph 53% 0 in CLR
13:55 59.4 °F 42.6 °F 30.4 in NE 4.7 mph 6.9 mph 54% 0 in CLR
14:00 59.5 °F 41.9 °F 30.4 in NE 6 mph 7 mph 52% 0 in CLR
14:05 59.7 °F 43 °F 30.4 in NNE 5.4 mph 6.9 mph 54% 0 in CLR
14:10 59.7 °F 43.5 °F 30.4 in NNE 4 mph 6.9 mph 55% 0 in CLR
14:15 59.7 °F 43 °F 30.4 in North 4 mph 10.4 mph 54% 0 in CLR
14:20 59.4 °F 43.2 °F 30.4 in NE 6.4 mph 8.1 mph 55% 0 in CLR
14:25 59.5 °F 43.9 °F 30.4 in ENE 6.4 mph 8.1 mph 56% 0 in CLR
14:30 59.4 °F 44.1 °F 30.4 in ENE 5.2 mph 11.5 mph 57% 0 in CLR
14:35 59.4 °F 44.6 °F 30.4 in NE 5.2 mph 9.2 mph 58% 0 in CLR
14:40 59.2 °F 44.4 °F 30.4 in NE 8 mph 12 mph 58% 0 in CLR
14:45 59.4 °F 44.6 °F 30.4 in East 7.6 mph 8.1 mph 58% 0 in CLR
14:50 59.4 °F 44.1 °F 30.4 in NE 5.2 mph 6.9 mph 57% 0 in CLR
14:55 59.5 °F 44.2 °F 30.4 in East 5.2 mph 8.1 mph 57% 0 in CLR
15:00 59.5 °F 43.9 °F 30.4 in NE 5 mph 8 mph 56% 0 in CLR
15:05 59.5 °F 43.9 °F 30.4 in ESE 4.7 mph 4.6 mph 56% 0 in CLR
15:10 59.7 °F 44.1 °F 30.4 in ENE 4 mph 9.2 mph 56% 0 in CLR
15:15 59.9 °F 43.2 °F 30.4 in SSE 4 mph 9.2 mph 54% 0 in CLR
15:20 59.9 °F 42.6 °F 30.4 in SE 5.9 mph 9.2 mph 53% 0 in CLR
15:25 60.3 °F 42.1 °F 30.4 in ESE 5.9 mph 6.9 mph 51% 0 in CLR
15:30 60.3 °F 42.6 °F 30.4 in East 6.9 mph 11.5 mph 52% 0 in CLR
15:35 60.3 °F 42.6 °F 30.4 in ESE 6.9 mph 9.2 mph 52% 0 in CLR
15:40 60.6 °F 43.9 °F 30.4 in East 5.4 mph 6.9 mph 54% 0 in CLR
15:45 60.6 °F 43.9 °F 30.4 in East 5.4 mph 8.5 mph 54% 0 in CLR
15:50 60.6 °F 43.9 °F 30.4 in East 4.3 mph 8.1 mph 54% 0 in CLR
15:55 60.8 °F 44.1 °F 30.4 in East 5 mph 6 mph 54% 0 in CLR
16:00 61 °F 44.2 °F 30.4 in ESE 5 mph 9 mph 54% 0 in CLR
16:05 61.5 °F 44.2 °F 30.4 in South 4 mph 6.9 mph 53% 0 in CLR
16:10 61.5 °F 43.7 °F 30.4 in ESE 3 mph 10 mph 52% 0 in CLR
16:15 61.5 °F 43.7 °F 30.4 in NE 3.6 mph 6.2 mph 52% 0 in CLR
16:20 61.5 °F 43.7 °F 30.4 in East 5.9 mph 9.2 mph 52% 0 in CLR
16:25 61.2 °F 44.4 °F 30.4 in East 5.9 mph 12.7 mph 54% 0 in CLR
16:30 61 °F 44.8 °F 30.4 in NE 7.4 mph 9.2 mph 55% 0 in CLR
16:35 60.4 °F 44.8 °F 30.4 in NNW 7.4 mph 10.4 mph 56% 0 in CLR
16:40 60.1 °F 44.8 °F 30.4 in NNE 6.4 mph 8.1 mph 57% 0 in CLR
16:45 60.1 °F 44.8 °F 30.4 in NE 7 mph 10 mph 57% 0 in CLR
16:50 60.1 °F 45.1 °F 30.4 in ENE 5.2 mph 10.4 mph 58% 0 in CLR
16:55 59.7 °F 45 °F 30.4 in East 5.2 mph 8.1 mph 58% 0 in CLR
17:00 59.5 °F 44.8 °F 30.4 in ENE 6 mph 10 mph 58% 0 in CLR
17:05 59.4 °F 44.6 °F 30.4 in NE 5.9 mph 6.9 mph 58% 0 in CLR
17:10 59.4 °F 44.6 °F 30.4 in East 5.9 mph 9.2 mph 58% 0 in CLR
17:15 59.2 °F 44.4 °F 30.4 in East 5.9 mph 8.1 mph 58% 0 in CLR
17:20 59.2 °F 45 °F 30.4 in ENE 5.4 mph 8.1 mph 59% 0 in CLR
17:25 59 °F 44.8 °F 30.4 in NE 5.4 mph 6.9 mph 59% 0 in CLR
17:30 58.8 °F 44.4 °F 30.4 in North 5.4 mph 5.8 mph 59% 0 in CLR
17:35 58.8 °F 45 °F 30.4 in ENE 6 mph 7 mph 60% 0 in CLR
17:40 58.8 °F 45 °F 30.4 in East 4 mph 9.2 mph 60% 0 in CLR
17:45 58.8 °F 45 °F 30.4 in NE 4 mph 6.9 mph 60% 0 in CLR
17:50 58.6 °F 44.8 °F 30.4 in ENE 5 mph 8 mph 60% 0 in CLR
17:55 58.6 °F 44.8 °F 30.4 in ENE 4.7 mph 5.9 mph 60% 0 in CLR
18:00 58.6 °F 44.8 °F 30.4 in East 5 mph 8 mph 60% 0 in CLR
18:05 58.5 °F 44.6 °F 30.4 in ESE 4 mph 6.9 mph 60% 0 in CLR
18:10 58.3 °F 45 °F 30.4 in East 5 mph 10 mph 61% 0 in CLR
18:15 57.9 °F 45 °F 30.4 in ESE 4.7 mph 10.4 mph 62% 0 in CLR
18:20 57.9 °F 45.3 °F 30.4 in East 5.9 mph 8.1 mph 63% 0 in CLR
18:25 57.6 °F 45.5 °F 30.4 in ESE 5.9 mph 8.1 mph 64% 0 in CLR
18:30 57.4 °F 45.3 °F 30.4 in East 5.4 mph 5.8 mph 64% 0 in CLR
18:35 57.2 °F 45.5 °F 30.4 in ESE 5.4 mph 10.4 mph 65% 0 in CLR
18:40 57 °F 45.9 °F 30.4 in SE 5.9 mph 6.9 mph 66% 0 in CLR
18:45 56.8 °F 46 °F 30.4 in ESE 5.9 mph 4.6 mph 67% 0 in CLR
18:50 56.7 °F 45.9 °F 30.4 in East 4.7 mph 6.9 mph 67% 0 in CLR
18:55 56.7 °F 45.9 °F 30.4 in ENE 4.7 mph 4.6 mph 67% 0 in CLR
19:00 56.5 °F 46 °F 30.4 in East 5 mph 6 mph 68% 0 in CLR
19:05 56.5 °F 46 °F 30.4 in East 4 mph 4.6 mph 68% 0 in CLR
19:10 56.3 °F 45.9 °F 30.4 in East 3.1 mph 4.6 mph 68% 0 in CLR
19:15 56.1 °F 46 °F 30.4 in East 3.1 mph 4.6 mph 69% 0 in CLR
19:20 56.1 °F 46 °F 30.4 in East 2.9 mph 4.6 mph 69% 0 in CLR
19:25 55.9 °F 45.9 °F 30.4 in East 2.9 mph 5.8 mph 69% 0 in CLR
19:30 55.8 °F 46 °F 30.4 in ESE 2.9 mph 4.6 mph 70% 0 in CLR
19:35 55.6 °F 45.9 °F 30.5 in East 2.9 mph 4.6 mph 70% 0 in CLR
19:40 55.2 °F 46 °F 30.5 in East 2 mph 5 mph 71% 0 in CLR
19:45 55.2 °F 46 °F 30.5 in NNE 2.4 mph 4.6 mph 71% 0 in CLR
19:50 55 °F 46.2 °F 30.5 in NNE 2.9 mph 4.6 mph 72% 0 in CLR
19:55 54.7 °F 46.2 °F 30.5 in North 2.9 mph 4.7 mph 73% 0 in CLR
20:00 54.1 °F 46 °F 30.5 in NNE 3 mph 5 mph 74% 0 in CLR
20:05 53.8 °F 46 °F 30.5 in NE 3.1 mph 3.5 mph 75% 0 in CLR
20:10 53.4 °F 46 °F 30.5 in NNE 2.4 mph 4.6 mph 76% 0 in CLR
20:15 53.1 °F 46 °F 30.5 in North 2.4 mph 4.6 mph 77% 0 in CLR
20:20 52.9 °F 45.9 °F 30.5 in NNE 3.1 mph 4.6 mph 77% 0 in CLR
20:25 52.7 °F 46 °F 30.5 in NE 3.1 mph 4.6 mph 78% 0 in CLR
20:30 52.5 °F 45.9 °F 30.5 in NE 3.1 mph 4.7 mph 78% 0 in CLR
20:35 52.3 °F 46 °F 30.5 in NNE 3.1 mph 4.7 mph 79% 0 in CLR
20:40 52.2 °F 45.9 °F 30.5 in NNE 3.6 mph 4.6 mph 79% 0 in CLR
20:45 52.2 °F 46.2 °F 30.5 in NNE 3.6 mph 5.8 mph 80% 0 in CLR
20:50 52 °F 46 °F 30.5 in North 4 mph 4.6 mph 80% 0 in CLR
20:55 51.6 °F 45.7 °F 30.5 in North 5 mph 5 mph 80% 0 in CLR
21:00 51.6 °F 45.7 °F 30.5 in North 2 mph 5 mph 80% 0 in CLR
21:05 51.4 °F 45.9 °F 30.5 in North 2 mph 6 mph 81% 0 in CLR
21:10 51.4 °F 45.9 °F 30.5 in NNE 2.9 mph 4.6 mph 81% 0 in CLR
21:15 51.3 °F 46 °F 30.5 in NE 2.9 mph 5.8 mph 82% 0 in CLR
21:20 51.3 °F 46 °F 30.5 in NE 3.6 mph 5.8 mph 82% 0 in CLR
21:25 51.4 °F 46 °F 30.5 in NE 3.6 mph 5.8 mph 82% 0 in CLR
21:30 51.4 °F 46 °F 30.5 in NE 5 mph 7 mph 82% 0 in CLR
21:35 51.6 °F 46.2 °F 30.5 in NNE 4 mph 8.1 mph 82% 0 in CLR
21:40 51.8 °F 46.2 °F 30.5 in NNE 5.2 mph 5.8 mph 81% 0 in CLR
21:45 51.6 °F 46 °F 30.5 in NE 5.2 mph 5.8 mph 81% 0 in CLR
21:50 51.6 °F 46 °F 30.5 in NNE 3.1 mph 4.6 mph 81% 0 in CLR
21:55 51.4 °F 45.9 °F 30.5 in NNE 3.1 mph   81% 0 in CLR
22:00 51.4 °F 45.9 °F 30.5 in NNE 2 mph 3 mph 81% 0 in CLR
22:05 51.3 °F 46 °F 30.5 in NNE 2 mph 4.6 mph 82% 0 in CLR
22:10 51.3 °F 46 °F 30.5 in NNE 2 mph 2.4 mph 82% 0 in CLR
22:15 51.1 °F 45.9 °F 30.5 in NNE 2 mph 3.5 mph 82% 0 in CLR
22:20 50.9 °F 45.7 °F 30.5 in NNE 1.4 mph   82% 0 in CLR
22:25 50.7 °F 45.7 °F 30.5 in NNE 1.4 mph 2.9 mph 83% 0 in CLR
22:30 50.7 °F 45.7 °F 30.5 in NNE 1.4 mph 2.3 mph 83% 0 in CLR
22:35 50.5 °F 45.7 °F 30.5 in NNE 1 mph 3 mph 83% 0 in CLR
22:40 50.5 °F 45.7 °F 30.5 in NNE 1.4 mph   83% 0 in CLR
22:45 50.4 °F 45.3 °F 30.5 in NNE 1.4 mph 2.3 mph 83% 0 in CLR
22:50 50.4 °F 45.7 °F 30.5 in Calm     84% 0 in CLR
22:55 50.4 °F 45.7 °F 30.5 in Calm   3.5 mph 84% 0 in CLR
23:00 50.2 °F 45.5 °F 30.5 in NNE 2 mph 4 mph 84% 0 in CLR
23:05 50.2 °F 45.5 °F 30.5 in NNE 1.8 mph 1.2 mph 84% 0 in CLR
23:10 50.2 °F 45.5 °F 30.5 in NNE 1.4 mph 2.3 mph 84% 0 in CLR
23:15 50.2 °F 45.5 °F 30.5 in NNE 1.4 mph 2.4 mph 84% 0 in CLR
23:20 50 °F 45.3 °F 30.5 in Calm   2.3 mph 84% 0 in CLR
23:25 49.8 °F 45.1 °F 30.5 in Calm     84% 0 in CLR
23:30 49.8 °F 45.1 °F 30.5 in Calm     84% 0 in CLR
23:35 49.8 °F 45.1 °F 30.5 in Calm     84% 0 in CLR
23:40 49.6 °F 45 °F 30.5 in Calm     84% 0 in CLR
23:45 49.5 °F 44.8 °F 30.5 in Calm     84% 0 in CLR
23:50 49.3 °F 44.6 °F 30.5 in Calm     84% 0 in CLR
23:55 49.3 °F 44.6 °F 30.5 in Calm     84% 0 in CLR
Murcia-Puente Tocinos, España
Compliments of Weather Underground - 2.75 mb

La estación de MeteoMurcia.com, publica sus datos en los siguientes proyectos:

Weather Underground PWS IMURCIAP2 Meteoclimatic www.awekas.at

W3Counter
Web Analytics